Time;durP1;ratioP1;P1;durP2;ratioP2;P2;SDS_P1;SDS_P2;PMS_P1;PMS_P2;Temp;Humidity;BMP_temperature;BMP_pressure;BME280_temperature;BME280_humidity;BME280_pressure;Samples;Min_cycle;Max_cycle;Signal;HPM_P1;HPM_P2
2022/06/01 00:01:33;;;;;;;3.43;3.13;;;12.30;99.90;;;;;;5080680;28;20451;-93
2022/06/01 00:04:51;;;;;;;3.70;2.60;;;12.20;99.90;;;;;;5072130;28;20472;-93
2022/06/01 00:07:29;;;;;;;3.20;2.90;;;12.20;99.90;;;;;;5092172;28;20511;-94
2022/06/01 00:10:01;;;;;;;2.73;2.40;;;12.10;99.90;;;;;;5096998;28;20500;-94
2022/06/01 00:12:54;;;;;;;3.50;2.60;;;12.20;99.90;;;;;;5097191;28;20466;-93
2022/06/01 00:15:22;;;;;;;5.63;3.20;;;12.20;99.90;;;;;;5110521;22;20455;-72
2022/06/01 00:17:49;;;;;;;4.20;3.30;;;12.10;99.90;;;;;;5109907;28;20524;-72
2022/06/01 00:20:16;;;;;;;3.00;2.60;;;12.20;99.90;;;;;;5110323;28;20206;-72
2022/06/01 00:22:44;;;;;;;5.80;3.20;;;12.20;99.90;;;;;;5110677;28;20728;-72
2022/06/01 00:25:13;;;;;;;3.53;2.47;;;12.30;99.90;;;;;;5110791;28;20476;-72
2022/06/01 00:27:40;;;;;;;4.67;3.07;;;12.20;99.90;;;;;;5110710;28;20880;-72
2022/06/01 00:30:14;;;;;;;3.20;2.90;;;12.20;99.90;;;;;;5113976;28;20480;-72
2022/06/01 00:32:41;;;;;;;3.10;2.70;;;12.20;99.90;;;;;;5114784;28;20499;-72
2022/06/01 00:35:12;;;;;;;2.92;2.70;;;12.10;99.90;;;;;;5115475;28;20452;-68
2022/06/01 00:37:39;;;;;;;3.10;2.90;;;12.10;99.90;;;;;;5115553;28;20223;-72
2022/06/01 00:40:10;;;;;;;3.23;2.97;;;12.00;99.90;;;;;;5113831;28;21104;-72
2022/06/01 00:42:39;;;;;;;3.10;2.30;;;12.00;99.90;;;;;;5114627;28;20999;-72
2022/06/01 00:45:09;;;;;;;3.10;2.80;;;12.00;99.90;;;;;;5114065;28;20457;-72
2022/06/01 00:47:36;;;;;;;3.07;2.80;;;12.10;99.90;;;;;;5114610;28;20464;-72
2022/06/01 00:50:09;;;;;;;3.00;2.80;;;12.10;99.90;;;;;;5113496;28;20499;-72
2022/06/01 00:52:38;;;;;;;3.20;2.90;;;12.10;99.90;;;;;;5114410;28;20491;-73
2022/06/01 00:55:11;;;;;;;5.30;3.10;;;12.00;99.90;;;;;;5114567;28;20522;-72
2022/06/01 00:57:38;;;;;;;3.10;2.80;;;12.00;99.90;;;;;;5113966;28;20815;-72
2022/06/01 01:00:12;;;;;;;3.27;2.60;;;12.00;99.90;;;;;;5113768;28;20870;-72
2022/06/01 01:02:40;;;;;;;3.70;3.00;;;12.10;99.90;;;;;;5113907;28;20472;-72
2022/06/01 01:05:09;;;;;;;3.23;2.67;;;12.00;99.90;;;;;;5114338;28;20460;-72
2022/06/01 01:07:37;;;;;;;3.60;2.87;;;12.00;99.90;;;;;;5113922;28;20463;-72
2022/06/01 01:10:04;;;;;;;3.00;2.80;;;12.10;99.90;;;;;;5113585;28;20849;-72
2022/06/01 01:15:14;;;;;;;2.60;2.40;;;12.10;99.90;;;;;;5113647;28;20453;-71
2022/06/01 01:17:41;;;;;;;3.17;2.80;;;12.10;99.90;;;;;;5114013;28;20996;-72
2022/06/01 01:20:09;;;;;;;3.50;2.80;;;12.20;99.90;;;;;;5112920;28;20456;-72
2022/06/01 01:22:43;;;;;;;2.97;2.70;;;12.10;99.90;;;;;;5113941;28;20480;-72
2022/06/01 01:25:22;;;;;;;3.00;2.80;;;12.10;99.90;;;;;;5113174;28;20460;-72
2022/06/01 01:27:52;;;;;;;3.20;2.90;;;12.20;99.90;;;;;;5113549;28;20463;-71
2022/06/01 01:30:40;;;;;;;3.67;2.67;;;12.20;99.90;;;;;;5112830;28;20485;-72
2022/06/01 01:33:11;;;;;;;2.97;2.70;;;12.20;99.90;;;;;;5113375;28;20488;-72
2022/06/01 01:35:39;;;;;;;4.10;3.30;;;12.20;99.90;;;;;;5113417;28;20468;-71
2022/06/01 01:38:11;;;;;;;4.43;2.60;;;12.30;99.90;;;;;;5112841;28;20456;-71
2022/06/01 01:40:39;;;;;;;2.80;2.53;;;12.20;99.90;;;;;;5113213;28;20467;-72
2022/06/01 01:43:08;;;;;;;3.43;2.80;;;12.30;99.90;;;;;;5113179;28;20473;-72
2022/06/01 01:45:37;;;;;;;3.20;2.90;;;12.30;99.90;;;;;;5113785;28;20517;-72
2022/06/01 01:48:05;;;;;;;3.97;3.10;;;12.30;99.90;;;;;;5112612;28;20463;-72
2022/06/01 01:50:33;;;;;;;2.90;2.60;;;12.30;99.90;;;;;;5113178;28;20484;-72
2022/06/01 01:53:00;;;;;;;3.10;2.83;;;12.40;99.90;;;;;;5112689;28;20504;-73
2022/06/01 01:55:35;;;;;;;5.10;2.77;;;12.40;99.90;;;;;;5113043;28;20461;-72
2022/06/01 01:58:12;;;;;;;3.53;2.73;;;12.40;99.90;;;;;;5112178;28;20468;-72
2022/06/01 02:00:47;;;;;;;2.93;2.73;;;12.40;99.90;;;;;;5113291;28;20464;-72
2022/06/01 02:03:21;;;;;;;3.40;3.10;;;12.30;99.90;;;;;;5112760;28;20503;-73
2022/06/01 02:06:04;;;;;;;3.40;2.53;;;12.30;99.90;;;;;;5113092;28;20868;-72
2022/06/01 02:08:34;;;;;;;3.40;2.97;;;12.30;99.90;;;;;;5112456;28;20479;-72
2022/06/01 02:13:53;;;;;;;4.83;3.07;;;12.10;99.90;;;;;;5113014;28;20472;-71
2022/06/01 02:16:21;;;;;;;4.70;2.77;;;12.20;99.90;;;;;;5112135;28;20475;-72
2022/06/01 02:18:51;;;;;;;4.73;2.70;;;12.10;99.90;;;;;;5112293;28;20457;-72
2022/06/01 02:21:21;;;;;;;3.20;2.90;;;12.10;99.90;;;;;;5112130;28;20457;-72
2022/06/01 02:23:50;;;;;;;2.80;2.57;;;12.10;99.90;;;;;;5112589;28;20476;-72
2022/06/01 02:26:18;;;;;;;2.73;2.50;;;12.10;99.90;;;;;;5112100;28;20464;-72
2022/06/01 02:28:47;;;;;;;3.17;2.80;;;12.10;99.90;;;;;;5111975;28;20464;-71
2022/06/01 02:31:17;;;;;;;3.43;3.13;;;12.00;99.90;;;;;;5112123;28;20488;-73
2022/06/01 02:33:47;;;;;;;2.93;2.73;;;12.00;99.90;;;;;;5112004;28;20855;-73
2022/06/01 02:36:16;;;;;;;3.17;2.87;;;12.00;99.90;;;;;;5112024;28;20463;-73
2022/06/01 02:38:46;;;;;;;3.30;3.00;;;11.90;99.90;;;;;;5111494;28;20467;-74
2022/06/01 02:43:54;;;;;;;3.53;3.23;;;11.80;99.90;;;;;;5110929;28;20457;-73
2022/06/01 02:46:23;;;;;;;3.67;2.97;;;11.90;99.90;;;;;;5112029;28;20540;-72
2022/06/01 02:48:50;;;;;;;4.20;2.83;;;11.90;99.90;;;;;;5111419;28;20490;-74
2022/06/01 02:51:18;;;;;;;3.03;2.80;;;11.90;99.90;;;;;;5111303;28;20219;-72
2022/06/01 02:53:45;;;;;;;3.60;3.22;;;11.80;99.90;;;;;;5112106;28;20225;-71
2022/06/01 02:56:13;;;;;;;3.40;3.10;;;11.70;99.90;;;;;;5111902;28;20548;-71
2022/06/01 02:58:40;;;;;;;3.90;3.35;;;11.70;99.90;;;;;;5111828;28;20214;-71
2022/06/01 03:01:07;;;;;;;4.07;3.15;;;11.70;99.90;;;;;;5111844;28;20195;-72
2022/06/01 03:03:36;;;;;;;4.85;3.60;;;11.70;99.90;;;;;;5112473;28;20234;-72
2022/06/01 03:06:03;;;;;;;3.90;3.40;;;11.80;99.90;;;;;;5111602;28;20195;-72
2022/06/01 03:08:30;;;;;;;5.20;3.05;;;11.70;99.90;;;;;;5111519;28;20459;-72
2022/06/01 03:10:57;;;;;;;3.10;2.80;;;11.70;99.90;;;;;;5112037;28;20241;-74
2022/06/01 03:13:25;;;;;;;3.33;3.05;;;11.60;99.90;;;;;;5111852;28;20218;-71
2022/06/01 03:15:53;;;;;;;3.75;3.40;;;11.60;99.90;;;;;;5113561;28;20211;-73
2022/06/01 03:18:20;;;;;;;2.90;2.70;;;11.60;99.90;;;;;;5111394;28;20207;-72
2022/06/01 03:20:48;;;;;;;3.75;3.33;;;11.60;99.90;;;;;;5112095;28;20480;-72
2022/06/01 03:23:15;;;;;;;3.63;3.33;;;11.60;99.90;;;;;;5111233;28;20215;-73
2022/06/01 03:25:42;;;;;;;3.63;3.28;;;11.60;99.90;;;;;;5111729;28;20206;-72
2022/06/01 03:28:10;;;;;;;4.45;3.15;;;11.60;99.90;;;;;;5110841;28;20211;-72
2022/06/01 03:30:37;;;;;;;3.10;2.80;;;11.60;99.90;;;;;;5091693;28;20691;-72
2022/06/01 03:33:04;;;;;;;6.93;3.05;;;11.50;99.90;;;;;;5090565;28;20216;-72
2022/06/01 03:35:33;;;;;;;4.30;3.78;;;11.50;99.90;;;;;;5089529;28;20187;-72
2022/06/01 03:38:02;;;;;;;3.03;2.83;;;11.50;99.90;;;;;;5089495;28;20192;-72
2022/06/01 03:40:31;;;;;;;3.70;3.40;;;11.50;99.90;;;;;;5089025;28;20457;-72
2022/06/01 03:42:58;;;;;;;4.47;3.55;;;11.60;99.90;;;;;;5089161;28;20573;-72
2022/06/01 03:48:10;;;;;;;4.93;3.63;;;11.60;99.90;;;;;;5086163;28;20203;-72
2022/06/01 03:50:37;;;;;;;3.85;3.55;;;11.60;99.90;;;;;;5089246;28;20215;-73
2022/06/01 03:53:05;;;;;;;3.53;3.22;;;11.60;99.90;;;;;;5088314;28;20899;-76
2022/06/01 03:55:32;;;;;;;3.45;3.00;;;11.60;99.90;;;;;;5090069;28;20678;-77
2022/06/01 03:57:59;;;;;;;4.00;3.60;;;11.50;99.90;;;;;;5090063;28;20204;-76
2022/06/01 04:00:28;;;;;;;3.92;3.40;;;11.50;99.90;;;;;;5090151;28;20203;-74
2022/06/01 04:02:55;;;;;;;3.88;3.47;;;11.60;99.90;;;;;;5091893;28;20228;-76
2022/06/01 04:05:24;;;;;;;3.33;3.13;;;11.50;99.90;;;;;;5093973;28;20636;-74
2022/06/01 04:07:51;;;;;;;3.33;3.03;;;11.50;99.90;;;;;;5093952;28;20584;-75
2022/06/01 04:10:21;;;;;;;5.40;3.30;;;11.60;99.90;;;;;;5093183;28;20226;-74
2022/06/01 04:12:48;;;;;;;4.45;3.78;;;11.60;99.90;;;;;;5093148;28;20247;-75
2022/06/01 04:15:15;;;;;;;3.20;2.90;;;11.50;99.90;;;;;;5093829;28;20204;-74
2022/06/01 04:17:42;;;;;;;3.33;3.03;;;11.60;99.90;;;;;;5112649;28;20241;-77
2022/06/01 04:20:10;;;;;;;4.00;3.28;;;11.60;99.90;;;;;;5112815;28;20210;-74
2022/06/01 04:22:40;;;;;;;4.65;3.05;;;11.60;99.90;;;;;;5114128;28;20215;-73
2022/06/01 04:25:08;;;;;;;4.85;3.22;;;11.70;99.90;;;;;;5113076;28;20191;-74
2022/06/01 04:27:38;;;;;;;3.80;3.03;;;11.70;99.90;;;;;;5113667;28;20203;-74
2022/06/01 04:30:06;;;;;;;3.40;3.10;;;11.80;99.90;;;;;;5112724;28;20452;-73
2022/06/01 04:32:33;;;;;;;3.30;2.70;;;11.90;99.90;;;;;;5112097;28;20495;-74
2022/06/01 04:35:00;;;;;;;4.53;2.97;;;11.80;99.90;;;;;;5111782;28;20207;-75
2022/06/01 04:37:27;;;;;;;3.40;3.10;;;11.90;99.90;;;;;;5112029;28;20464;-74
2022/06/01 04:39:54;;;;;;;3.47;3.17;;;11.90;99.90;;;;;;5111715;27;20460;-74
2022/06/01 04:42:21;;;;;;;3.70;2.97;;;11.90;99.90;;;;;;5111804;28;20476;-74
2022/06/01 04:44:49;;;;;;;4.23;3.80;;;11.90;99.90;;;;;;5112392;28;20467;-75
2022/06/01 04:47:16;;;;;;;3.30;3.00;;;12.00;99.90;;;;;;5114074;27;20456;-74
2022/06/01 04:49:43;;;;;;;3.83;3.15;;;12.00;99.90;;;;;;5114730;28;20199;-73
2022/06/01 04:52:09;;;;;;;5.80;3.40;;;12.10;99.90;;;;;;5113895;28;20724;-74
2022/06/01 04:57:08;;;;;;;3.53;3.23;;;12.20;99.90;;;;;;5072625;28;20466;-90
2022/06/01 04:59:35;;;;;;;3.67;3.00;;;12.20;99.90;;;;;;5074504;28;20446;-89
2022/06/01 05:02:03;;;;;;;3.50;3.20;;;12.30;99.90;;;;;;5076795;28;20207;-89
2022/06/01 05:04:30;;;;;;;3.80;3.37;;;12.40;99.90;;;;;;5076871;28;20458;-88
2022/06/01 05:06:58;;;;;;;3.80;3.03;;;12.50;99.90;;;;;;5056009;28;20464;-89
2022/06/01 05:09:25;;;;;;;5.82;3.45;;;12.50;99.90;;;;;;5056900;28;20463;-87
2022/06/01 05:11:52;;;;;;;5.43;2.77;;;12.60;99.90;;;;;;5055916;28;20228;-87
2022/06/01 05:14:19;;;;;;;4.13;3.05;;;12.60;99.90;;;;;;5054893;28;20877;-88
2022/06/01 05:16:45;;;;;;;4.17;3.60;;;12.70;99.90;;;;;;5055736;28;20231;-89
2022/06/01 05:19:13;;;;;;;3.10;2.80;;;12.70;99.90;;;;;;5055769;28;20463;-88
2022/06/01 05:21:40;;;;;;;2.90;2.70;;;12.80;99.90;;;;;;5055781;28;20492;-89
2022/06/01 05:24:08;;;;;;;3.43;2.87;;;12.90;99.90;;;;;;5055437;28;20975;-89
2022/06/01 05:26:34;;;;;;;4.07;3.10;;;12.90;99.90;;;;;;5055267;28;20989;-88
2022/06/01 05:29:01;;;;;;;3.50;3.03;;;13.00;99.90;;;;;;5055109;28;20979;-89
2022/06/01 05:31:28;;;;;;;4.50;3.23;;;13.10;99.90;;;;;;5055860;28;20490;-89
2022/06/01 05:33:55;;;;;;;3.90;3.50;;;13.20;99.90;;;;;;5056438;28;20468;-88
2022/06/01 05:36:23;;;;;;;4.20;3.53;;;13.30;99.90;;;;;;5056393;28;20483;-89
2022/06/01 05:38:55;;;;;;;3.37;3.00;;;13.30;99.90;;;;;;5055344;28;20463;-89
2022/06/01 05:41:22;;;;;;;3.10;2.80;;;13.50;99.90;;;;;;5055400;28;20944;-91
2022/06/01 05:43:49;;;;;;;3.27;3.00;;;13.60;99.90;;;;;;5055722;28;20451;-90
2022/06/01 05:46:16;;;;;;;3.57;2.97;;;13.60;99.90;;;;;;5054681;28;20568;-91
2022/06/01 05:48:43;;;;;;;5.00;3.17;;;13.70;99.90;;;;;;5054796;28;20964;-90
2022/06/01 05:51:09;;;;;;;3.87;2.87;;;13.80;99.90;;;;;;5054139;28;20491;-91
2022/06/01 05:53:37;;;;;;;3.10;2.80;;;13.80;99.90;;;;;;5054982;28;20467;-90
2022/06/01 05:56:04;;;;;;;3.10;2.80;;;13.80;99.90;;;;;;5055295;28;20495;-89
2022/06/01 05:58:32;;;;;;;3.30;2.63;;;13.90;99.90;;;;;;5054624;28;20468;-90
2022/06/01 06:01:03;;;;;;;4.50;3.20;;;14.10;99.90;;;;;;5054323;28;20455;-89
2022/06/01 06:03:31;;;;;;;4.40;3.10;;;14.10;99.90;;;;;;5054198;28;20462;-90
2022/06/01 06:06:14;;;;;;;8.87;3.07;;;14.30;99.90;;;;;;5054227;28;20506;-89
2022/06/01 06:08:49;;;;;;;3.30;3.10;;;14.40;99.90;;;;;;5054647;28;20471;-90
2022/06/01 06:14:38;;;;;;;3.00;2.23;;;14.50;99.90;;;;;;5061467;22;20488;-73
2022/06/01 06:17:05;;;;;;;5.60;2.60;;;14.70;99.90;;;;;;5090085;28;20978;-74
2022/06/01 06:19:32;;;;;;;6.20;2.87;;;14.70;99.90;;;;;;5090250;28;20458;-72
2022/06/01 06:21:59;;;;;;;3.30;2.70;;;14.80;99.90;;;;;;5090320;28;20542;-74
2022/06/01 06:24:27;;;;;;;3.50;2.57;;;14.80;99.90;;;;;;5090364;28;20506;-73
2022/06/01 06:26:54;;;;;;;3.00;2.70;;;14.80;99.90;;;;;;5089950;28;20872;-74
2022/06/01 06:29:21;;;;;;;2.53;2.33;;;14.80;99.90;;;;;;5089548;28;20549;-74
2022/06/01 06:31:48;;;;;;;4.63;3.03;;;15.00;99.90;;;;;;5090246;28;20835;-74
2022/06/01 06:34:15;;;;;;;6.87;2.53;;;15.10;99.90;;;;;;5090045;28;20538;-73
2022/06/01 06:36:44;;;;;;;3.30;3.00;;;15.10;99.90;;;;;;5090369;28;20465;-76
2022/06/01 06:39:11;;;;;;;3.30;3.00;;;15.20;99.90;;;;;;5090519;28;21271;-82
2022/06/01 06:41:39;;;;;;;3.07;2.77;;;15.30;99.90;;;;;;5091097;28;20541;-78
2022/06/01 06:44:07;;;;;;;4.50;2.67;;;15.40;99.90;;;;;;5090782;28;20513;-77
2022/06/01 06:46:34;;;;;;;2.80;2.50;;;15.50;99.90;;;;;;5091195;28;20465;-79
2022/06/01 06:49:01;;;;;;;3.37;2.80;;;15.60;99.90;;;;;;5090260;28;20869;-78
2022/06/01 06:51:28;;;;;;;3.37;2.93;;;15.70;99.90;;;;;;5090803;28;20630;-80
2022/06/01 06:53:55;;;;;;;3.83;3.40;;;15.70;99.90;;;;;;5090829;28;20540;-80
2022/06/01 06:56:22;;;;;;;4.00;2.97;;;15.80;99.90;;;;;;5090897;28;20564;-78
2022/06/01 06:58:51;;;;;;;4.37;2.87;;;15.80;99.90;;;;;;5092438;28;20488;-79
2022/06/01 07:01:18;;;;;;;3.20;2.90;;;15.90;99.90;;;;;;5113327;28;20535;-77
2022/06/01 07:03:44;;;;;;;4.03;3.10;;;15.90;99.90;;;;;;5115749;28;20530;-73
2022/06/01 07:06:12;;;;;;;3.10;2.73;;;16.00;99.90;;;;;;5110937;28;20614;-73
2022/06/01 07:08:41;;;;;;;4.53;2.90;;;16.10;99.90;;;;;;5110506;28;20456;-75
2022/06/01 07:11:09;;;;;;;2.70;2.50;;;16.10;99.90;;;;;;5110293;28;20465;-74
2022/06/01 07:13:37;;;;;;;3.93;2.73;;;16.20;99.90;;;;;;5110331;28;20853;-74
2022/06/01 07:16:09;;;;;;;4.10;2.70;;;16.30;99.90;;;;;;5104453;28;20471;-80
2022/06/01 07:18:39;;;;;;;2.73;2.53;;;16.30;99.90;;;;;;5093022;28;20464;-78
2022/06/01 07:21:06;;;;;;;5.63;2.80;;;16.40;99.90;;;;;;5090311;28;20454;-78
2022/06/01 07:23:34;;;;;;;6.80;2.87;;;16.50;99.90;;;;;;5091684;28;20568;-79
2022/06/01 07:26:01;;;;;;;3.03;2.73;;;16.50;99.90;;;;;;5087147;28;20461;-77
2022/06/01 07:28:28;;;;;;;4.30;3.27;;;16.70;99.90;;;;;;5087866;28;20826;-80
2022/06/01 07:30:56;;;;;;;3.17;2.90;;;16.80;99.90;;;;;;5089292;28;20489;-77
2022/06/01 07:33:25;;;;;;;5.43;2.67;;;16.90;99.90;;;;;;5090983;28;20490;-80
2022/06/01 07:35:53;;;;;;;2.70;2.50;;;16.90;99.90;;;;;;5094161;28;20458;-79
2022/06/01 07:43:49;;;;;;;3.60;2.33;;;17.20;99.90;;;;;;5088399;28;20505;-78
2022/06/01 07:46:16;;;;;;;4.50;2.60;;;17.30;99.90;;;;;;5089170;28;20457;-74
2022/06/01 07:48:44;;;;;;;3.43;2.93;;;17.40;99.90;;;;;;5079316;28;20732;-75
2022/06/01 07:51:11;;;;;;;5.50;2.53;;;17.50;99.90;;;;;;5067963;28;20888;-74
2022/06/01 07:53:38;;;;;;;4.00;2.80;;;17.50;99.90;;;;;;5068967;28;20478;-74
2022/06/01 07:56:05;;;;;;;4.57;2.43;;;17.70;99.90;;;;;;5069704;28;20502;-80
2022/06/01 07:58:32;;;;;;;4.03;2.50;;;17.80;99.90;;;;;;5086056;28;20493;-77
2022/06/01 08:00:59;;;;;;;2.60;2.40;;;17.80;99.90;;;;;;5081212;28;20463;-81
2022/06/01 08:03:26;;;;;;;4.13;2.50;;;17.90;99.90;;;;;;5078665;28;21062;-79
2022/06/01 08:05:54;;;;;;;2.80;2.10;;;18.10;99.90;;;;;;5072465;28;20466;-78
2022/06/01 08:08:21;;;;;;;2.50;2.30;;;18.30;99.90;;;;;;5068600;28;20467;-78
2022/06/01 08:10:48;;;;;;;2.80;2.23;;;18.40;98.80;;;;;;5068010;28;21340;-78
2022/06/01 08:13:15;;;;;;;4.10;2.27;;;18.50;98.60;;;;;;5068496;28;20494;-78
2022/06/01 08:15:43;;;;;;;2.23;2.03;;;18.60;99.40;;;;;;5069096;28;20474;-77
2022/06/01 08:18:12;;;;;;;2.17;1.77;;;18.70;98.90;;;;;;5068257;28;20529;-78
2022/06/01 08:20:39;;;;;;;2.20;2.00;;;18.80;97.80;;;;;;5068314;28;20516;-77
2022/06/01 08:23:07;;;;;;;2.60;1.80;;;18.90;96.40;;;;;;5068212;28;20487;-78
2022/06/01 08:25:35;;;;;;;2.03;1.60;;;19.00;96.20;;;;;;5068820;28;20848;-77
2022/06/01 08:28:03;;;;;;;8.17;2.10;;;19.10;95.60;;;;;;5068015;28;20571;-77
2022/06/01 08:30:31;;;;;;;1.70;1.60;;;19.30;95.00;;;;;;5069772;28;20458;-80
2022/06/01 08:32:58;;;;;;;2.30;2.10;;;19.40;96.50;;;;;;5068342;28;20893;-76
2022/06/01 08:35:27;;;;;;;2.50;1.83;;;19.50;94.80;;;;;;5067971;28;20830;-77
2022/06/01 08:37:54;;;;;;;2.23;2.03;;;19.60;95.30;;;;;;5068471;28;20461;-76
2022/06/01 08:40:26;;;;;;;2.10;1.90;;;19.70;95.40;;;;;;5068588;28;20961;-76
2022/06/01 08:42:59;;;;;;;3.47;2.10;;;19.90;95.70;;;;;;5067942;28;20490;-78
2022/06/01 08:45:28;;;;;;;2.87;2.30;;;20.00;95.00;;;;;;5068697;28;20458;-77
2022/06/01 08:47:55;;;;;;;2.40;1.93;;;20.10;93.90;;;;;;5068407;28;20969;-76
2022/06/01 08:50:27;;;;;;;3.07;2.33;;;20.20;94.70;;;;;;5069836;28;20462;-72
2022/06/01 08:52:56;;;;;;;3.73;2.33;;;20.10;94.50;;;;;;5071218;28;20501;-71
2022/06/01 08:55:28;;;;;;;2.30;1.90;;;19.90;92.80;;;;;;5072475;28;20470;-80
2022/06/01 08:57:58;;;;;;;2.87;1.63;;;19.90;93.10;;;;;;5078153;28;20469;-73
2022/06/01 09:00:28;;;;;;;1.87;1.77;;;20.00;91.90;;;;;;5095737;28;20483;-78
2022/06/01 09:03:07;;;;;;;2.90;1.60;;;20.10;93.10;;;;;;5094700;28;21062;-78
2022/06/01 09:05:43;;;;;;;2.97;1.90;;;20.30;91.50;;;;;;5094019;28;20500;-77
2022/06/01 09:08:18;;;;;;;3.10;2.00;;;20.30;91.50;;;;;;5092824;28;20461;-77
2022/06/01 09:11:02;;;;;;;4.47;2.43;;;20.40;91.40;;;;;;5094926;28;20461;-79
2022/06/01 09:13:35;;;;;;;2.00;1.80;;;20.60;92.50;;;;;;5093655;28;20840;-78
2022/06/01 09:16:04;;;;;;;2.80;1.80;;;20.80;92.90;;;;;;5094060;28;20845;-79
2022/06/01 09:18:37;;;;;;;4.87;1.80;;;20.80;91.20;;;;;;5094435;28;20466;-78
2022/06/01 09:23:48;;;;;;;2.60;1.70;;;20.80;91.50;;;;;;5094306;28;20991;-77
2022/06/01 09:26:28;;;;;;;3.10;1.70;;;20.70;89.90;;;;;;5094290;28;20457;-78
2022/06/01 09:28:58;;;;;;;2.60;1.70;;;20.60;89.30;;;;;;5093928;28;20450;-78
2022/06/01 09:31:31;;;;;;;2.37;1.80;;;20.60;88.50;;;;;;5095397;28;20831;-77
2022/06/01 09:34:20;;;;;;;2.60;1.80;;;20.50;89.70;;;;;;5093800;28;21023;-77
2022/06/01 09:36:56;;;;;;;3.20;1.97;;;20.50;90.10;;;;;;5093486;28;20469;-78
2022/06/01 09:39:23;;;;;;;1.93;1.73;;;20.40;88.60;;;;;;5094377;28;20869;-78
2022/06/01 09:41:52;;;;;;;2.50;1.70;;;20.50;90.00;;;;;;5094137;28;20453;-77
2022/06/01 09:44:32;;;;;;;2.87;1.80;;;20.50;89.50;;;;;;5092117;28;20461;-77
2022/06/01 09:47:00;;;;;;;2.60;1.57;;;20.60;86.90;;;;;;5093547;28;20472;-78
2022/06/01 09:49:29;;;;;;;2.70;1.60;;;20.60;87.90;;;;;;5093683;28;20497;-79
2022/06/01 09:52:00;;;;;;;4.23;1.70;;;20.80;88.60;;;;;;5093486;28;20457;-79
2022/06/01 09:54:30;;;;;;;1.93;1.70;;;20.90;85.90;;;;;;5091830;28;21012;-74
2022/06/01 09:57:15;;;;;;;2.50;1.40;;;21.00;87.70;;;;;;5091448;28;20491;-73
2022/06/01 10:08:11;;;;;;;5.03;1.93;;;21.30;84.80;;;;;;5111329;28;20475;-73
2022/06/01 10:10:39;;;;;;;2.50;1.57;;;21.30;85.40;;;;;;5111959;28;20556;-73
2022/06/01 10:13:08;;;;;;;3.23;1.60;;;21.30;87.90;;;;;;5111111;28;20488;-73
2022/06/01 10:15:40;;;;;;;2.93;1.60;;;21.40;85.00;;;;;;5111192;28;20465;-74
2022/06/01 10:18:12;;;;;;;2.13;1.60;;;21.40;85.10;;;;;;5111080;28;20472;-73
2022/06/01 10:20:45;;;;;;;3.13;1.70;;;21.40;82.70;;;;;;5111440;28;20468;-73
2022/06/01 10:23:16;;;;;;;1.63;1.53;;;21.30;83.60;;;;;;5111162;28;20472;-74
2022/06/01 10:25:49;;;;;;;1.87;1.60;;;21.30;83.40;;;;;;5110997;28;20461;-75
2022/06/01 10:28:22;;;;;;;1.93;1.50;;;21.40;84.80;;;;;;5110490;28;20467;-73
2022/06/01 10:30:51;;;;;;;1.67;1.57;;;21.50;83.70;;;;;;5111024;28;20555;-73
2022/06/01 10:33:22;;;;;;;2.03;1.53;;;21.80;86.00;;;;;;5110699;28;20504;-74
2022/06/01 10:35:55;;;;;;;2.20;1.60;;;22.10;85.70;;;;;;5111085;28;20457;-73
2022/06/01 10:38:25;;;;;;;2.20;1.60;;;22.30;83.70;;;;;;5110208;28;20457;-73
2022/06/01 10:40:59;;;;;;;1.83;1.57;;;22.30;82.20;;;;;;5110762;28;20464;-74
2022/06/01 10:43:48;;;;;;;1.50;1.40;;;22.20;83.00;;;;;;5108606;28;20818;-74
2022/06/01 10:46:33;;;;;;;1.60;1.50;;;22.00;83.50;;;;;;5092527;28;20460;-79
2022/06/01 10:49:30;;;;;;;2.03;1.70;;;21.90;82.40;;;;;;5072932;28;20814;-77
2022/06/01 10:52:05;;;;;;;2.30;1.87;;;21.90;83.00;;;;;;5073260;28;20466;-79
2022/06/01 10:54:39;;;;;;;2.00;1.43;;;22.00;82.30;;;;;;5073036;28;20458;-79
2022/06/01 10:57:10;;;;;;;1.97;1.40;;;22.00;82.70;;;;;;5072684;28;20462;-79
2022/06/01 10:59:39;;;;;;;3.70;1.60;;;22.10;84.10;;;;;;5073188;28;20473;-80
2022/06/01 11:02:20;;;;;;;1.90;1.47;;;22.10;81.80;;;;;;5073481;28;20461;-78
2022/06/01 11:05:13;;;;;;;2.10;1.60;;;21.90;83.90;;;;;;5071092;28;20454;-79
2022/06/01 11:07:50;;;;;;;1.83;1.60;;;21.90;80.30;;;;;;5071964;28;20930;-80
2022/06/01 11:10:26;;;;;;;6.37;2.53;;;21.90;81.10;;;;;;5073024;28;20461;-82
2022/06/01 11:13:47;;;;;;;2.47;1.93;;;21.80;81.20;;;;;;5099229;22;20831;-91
2022/06/01 11:16:27;;;;;;;2.17;1.70;;;22.00;82.90;;;;;;5042747;28;20476;-92
2022/06/01 11:19:04;;;;;;;1.70;1.60;;;22.40;81.10;;;;;;5052374;28;20788;-91
2022/06/01 11:21:40;;;;;;;2.27;2.13;;;22.50;80.20;;;;;;5054804;28;20439;-91
2022/06/01 11:24:36;;;;;;;2.10;1.47;;;22.70;81.60;;;;;;5053454;28;20828;-91
2022/06/01 11:27:17;;;;;;;1.70;1.60;;;23.00;81.50;;;;;;5054121;28;20513;-91
2022/06/01 11:29:57;;;;;;;1.93;1.50;;;23.30;83.50;;;;;;5053637;28;20472;-90
2022/06/01 11:32:31;;;;;;;1.60;1.50;;;23.60;81.40;;;;;;5053833;28;20463;-91
2022/06/01 11:35:05;;;;;;;1.30;1.20;;;23.70;76.80;;;;;;5052967;28;20482;-90
2022/06/01 11:37:36;;;;;;;1.93;1.40;;;23.70;74.90;;;;;;5055695;28;20470;-91
2022/06/01 11:40:09;;;;;;;2.17;1.60;;;23.80;76.50;;;;;;5054167;28;20470;-90
2022/06/01 11:42:40;;;;;;;1.50;1.30;;;23.70;75.70;;;;;;5053479;28;20499;-90
2022/06/01 11:45:12;;;;;;;2.00;1.53;;;23.50;77.80;;;;;;5034646;28;20460;-91
2022/06/01 11:47:47;;;;;;;2.23;1.60;;;23.50;80.20;;;;;;5036484;28;20469;-91
2022/06/01 11:50:19;;;;;;;5.20;1.80;;;23.40;80.10;;;;;;5038818;28;20467;-91
2022/06/01 11:52:53;;;;;;;1.60;1.50;;;23.40;77.80;;;;;;5037955;28;20559;-91
2022/06/01 11:55:46;;;;;;;1.60;1.50;;;23.50;80.70;;;;;;5038519;28;20460;-92
2022/06/01 11:58:20;;;;;;;4.17;1.60;;;23.70;78.80;;;;;;5029571;28;20460;-92
2022/06/01 12:00:52;;;;;;;2.43;1.50;;;23.70;78.20;;;;;;5037664;28;20521;-91
2022/06/01 12:03:41;;;;;;;1.33;1.23;;;23.60;77.50;;;;;;5036438;28;20476;-92
2022/06/01 12:06:12;;;;;;;2.20;1.70;;;23.60;80.70;;;;;;5036601;28;20475;-91
2022/06/01 12:08:50;;;;;;;2.13;1.60;;;23.80;78.90;;;;;;5037402;28;20472;-91
2022/06/01 12:11:42;;;;;;;1.70;1.50;;;23.80;80.30;;;;;;5040642;28;21099;-92
2022/06/01 12:14:23;;;;;;;2.57;1.50;;;23.90;81.50;;;;;;5036283;28;20484;-91
2022/06/01 12:17:23;;;;;;;3.40;1.73;;;23.70;77.10;;;;;;5038004;28;20460;-92
2022/06/01 12:19:54;;;;;;;2.17;1.70;;;23.50;81.00;;;;;;5034525;28;20461;-93
2022/06/01 12:28:31;;;;;;;2.20;1.50;;;23.70;77.10;;;;;;5039454;28;20465;-92
2022/06/01 12:37:30;;;;;;;1.50;1.40;;;23.60;79.20;;;;;;5038122;28;20444;-91
2022/06/01 12:40:01;;;;;;;17.17;2.93;;;23.40;80.20;;;;;;5038809;28;20464;-91
2022/06/01 12:45:49;;;;;;;3.20;1.60;;;23.20;82.80;;;;;;5021266;28;20487;-92
2022/06/01 12:48:30;;;;;;;3.27;2.00;;;23.50;81.00;;;;;;5045501;28;20977;-92
2022/06/01 12:50:59;;;;;;;1.77;1.60;;;23.80;84.50;;;;;;5055266;28;20459;-92
2022/06/01 12:54:16;;;;;;;2.73;1.80;;;23.90;77.70;;;;;;5057077;28;20526;-92
2022/06/01 12:59:58;;;;;;;2.13;1.87;;;23.50;80.70;;;;;;5056992;28;20455;-91
2022/06/01 13:02:25;;;;;;;1.90;1.70;;;23.10;79.70;;;;;;5060285;28;20470;-90
2022/06/01 13:04:53;;;;;;;3.40;1.50;;;22.90;80.50;;;;;;5061318;28;20483;-93
2022/06/01 13:07:38;;;;;;;1.63;1.53;;;23.10;82.70;;;;;;5059585;28;20463;-92
2022/06/01 13:16:46;;;;;;;3.37;1.60;;;24.30;81.50;;;;;;5091247;28;20469;-73
2022/06/01 13:19:20;;;;;;;2.33;1.77;;;24.60;81.90;;;;;;5091166;28;21065;-70
2022/06/01 13:21:52;;;;;;;2.07;1.70;;;24.80;83.40;;;;;;5092364;28;20457;-71
2022/06/01 13:24:20;;;;;;;3.47;2.17;;;24.90;80.40;;;;;;5072113;28;20461;-72
2022/06/01 13:26:51;;;;;;;3.50;1.93;;;24.70;78.70;;;;;;5072280;28;20454;-70
2022/06/01 13:29:20;;;;;;;2.30;1.93;;;24.20;78.50;;;;;;5071526;28;20454;-70
2022/06/01 13:31:51;;;;;;;2.20;1.90;;;24.00;79.40;;;;;;5072009;28;20458;-71
2022/06/01 13:34:23;;;;;;;1.97;1.80;;;23.90;81.40;;;;;;5071471;28;20862;-70
2022/06/01 13:36:52;;;;;;;2.20;1.70;;;23.70;81.60;;;;;;5071745;28;20458;-73
2022/06/01 13:39:30;;;;;;;3.50;2.00;;;23.70;81.70;;;;;;5071210;28;20459;-72
2022/06/01 13:42:00;;;;;;;1.90;1.80;;;23.80;83.90;;;;;;5071750;28;20458;-74
2022/06/01 13:44:47;;;;;;;5.90;2.20;;;23.70;86.20;;;;;;5071644;28;20960;-72
2022/06/01 13:47:14;;;;;;;3.53;2.60;;;23.50;83.30;;;;;;5071502;28;20458;-74
2022/06/01 13:49:42;;;;;;;2.40;2.20;;;23.30;85.00;;;;;;5071724;28;20482;-72
2022/06/01 13:52:11;;;;;;;2.50;2.10;;;23.20;85.90;;;;;;5071440;28;20465;-71
2022/06/01 13:54:39;;;;;;;2.10;1.90;;;23.10;83.50;;;;;;5070985;28;20478;-74
2022/06/01 13:57:15;;;;;;;2.17;1.97;;;23.00;85.10;;;;;;5071944;28;20818;-74
2022/06/01 13:59:52;;;;;;;3.30;2.43;;;22.90;84.40;;;;;;5071632;28;20823;-74
2022/06/01 14:02:29;;;;;;;4.07;1.93;;;22.80;85.10;;;;;;5071123;28;20486;-73
2022/06/01 14:05:01;;;;;;;2.17;1.80;;;22.70;84.30;;;;;;5071630;28;20465;-72
2022/06/01 14:07:41;;;;;;;2.10;1.90;;;22.60;84.80;;;;;;5071078;28;20474;-73